sensor_id;sensor_type;location;lat;lon;timestamp;P1;durP1;ratioP1;P2;durP2;ratioP2
59659;SDS011;45534;52.690;6.268;2022-09-30T00:00:19;11.07;;;6.13;;
59659;SDS011;45534;52.690;6.268;2022-09-30T00:02:45;10.00;;;6.97;;
59659;SDS011;45534;52.690;6.268;2022-09-30T00:05:11;9.05;;;5.72;;
59659;SDS011;45534;52.690;6.268;2022-09-30T00:07:36;7.70;;;5.70;;
59659;SDS011;45534;52.690;6.268;2022-09-30T00:10:02;9.70;;;6.40;;
59659;SDS011;45534;52.690;6.268;2022-09-30T00:12:28;7.35;;;6.00;;
59659;SDS011;45534;52.690;6.268;2022-09-30T00:14:54;9.75;;;5.20;;
59659;SDS011;45534;52.690;6.268;2022-09-30T00:17:20;9.40;;;7.13;;
59659;SDS011;45534;52.690;6.268;2022-09-30T00:19:46;6.00;;;4.20;;
59659;SDS011;45534;52.690;6.268;2022-09-30T00:22:12;9.68;;;6.20;;
59659;SDS011;45534;52.690;6.268;2022-09-30T00:24:38;7.35;;;5.18;;
59659;SDS011;45534;52.690;6.268;2022-09-30T00:27:04;7.85;;;5.50;;
59659;SDS011;45534;52.690;6.268;2022-09-30T00:29:29;7.45;;;5.65;;
59659;SDS011;45534;52.690;6.268;2022-09-30T00:31:55;6.57;;;5.18;;
59659;SDS011;45534;52.690;6.268;2022-09-30T00:34:20;14.35;;;8.00;;
59659;SDS011;45534;52.690;6.268;2022-09-30T00:36:48;10.13;;;6.07;;
59659;SDS011;45534;52.690;6.268;2022-09-30T00:39:17;8.07;;;5.55;;
59659;SDS011;45534;52.690;6.268;2022-09-30T00:41:51;8.45;;;5.53;;
59659;SDS011;45534;52.690;6.268;2022-09-30T00:50:20;7.85;;;4.80;;
59659;SDS011;45534;52.690;6.268;2022-09-30T00:53:06;6.63;;;5.13;;
59659;SDS011;45534;52.690;6.268;2022-09-30T00:58:23;8.10;;;5.50;;
59659;SDS011;45534;52.690;6.268;2022-09-30T01:00:54;9.40;;;5.65;;
59659;SDS011;45534;52.690;6.268;2022-09-30T01:03:23;7.70;;;5.38;;
59659;SDS011;45534;52.690;6.268;2022-09-30T01:05:49;9.98;;;5.15;;
59659;SDS011;45534;52.690;6.268;2022-09-30T01:08:16;8.98;;;5.43;;
59659;SDS011;45534;52.690;6.268;2022-09-30T01:10:44;8.50;;;6.45;;
59659;SDS011;45534;52.690;6.268;2022-09-30T01:13:10;6.22;;;4.85;;
59659;SDS011;45534;52.690;6.268;2022-09-30T01:15:43;8.45;;;5.32;;
59659;SDS011;45534;52.690;6.268;2022-09-30T01:18:25;9.65;;;5.45;;
59659;SDS011;45534;52.690;6.268;2022-09-30T01:23:58;7.88;;;5.97;;
59659;SDS011;45534;52.690;6.268;2022-09-30T01:34:56;6.32;;;5.32;;
59659;SDS011;45534;52.690;6.268;2022-09-30T01:40:15;8.98;;;6.57;;
59659;SDS011;45534;52.690;6.268;2022-09-30T01:45:33;8.52;;;6.47;;
59659;SDS011;45534;52.690;6.268;2022-09-30T01:51:16;8.15;;;5.72;;
59659;SDS011;45534;52.690;6.268;2022-09-30T01:53:49;8.35;;;5.35;;
59659;SDS011;45534;52.690;6.268;2022-09-30T01:56:34;10.10;;;5.95;;
59659;SDS011;45534;52.690;6.268;2022-09-30T01:59:06;10.48;;;6.20;;
59659;SDS011;45534;52.690;6.268;2022-09-30T02:01:37;7.65;;;5.80;;
59659;SDS011;45534;52.690;6.268;2022-09-30T02:04:09;7.63;;;5.28;;
59659;SDS011;45534;52.690;6.268;2022-09-30T02:06:45;12.07;;;6.30;;
59659;SDS011;45534;52.690;6.268;2022-09-30T02:09:29;8.90;;;6.18;;
59659;SDS011;45534;52.690;6.268;2022-09-30T02:12:03;8.02;;;5.72;;
59659;SDS011;45534;52.690;6.268;2022-09-30T02:14:36;8.50;;;5.57;;
59659;SDS011;45534;52.690;6.268;2022-09-30T02:17:11;8.43;;;6.32;;
59659;SDS011;45534;52.690;6.268;2022-09-30T02:19:46;7.88;;;6.85;;
59659;SDS011;45534;52.690;6.268;2022-09-30T02:22:25;7.75;;;5.85;;
59659;SDS011;45534;52.690;6.268;2022-09-30T02:25:05;9.20;;;7.18;;
59659;SDS011;45534;52.690;6.268;2022-09-30T02:27:34;7.72;;;5.13;;
59659;SDS011;45534;52.690;6.268;2022-09-30T02:30:06;8.27;;;6.68;;
59659;SDS011;45534;52.690;6.268;2022-09-30T02:32:38;8.07;;;5.65;;
59659;SDS011;45534;52.690;6.268;2022-09-30T02:35:09;7.28;;;5.70;;
59659;SDS011;45534;52.690;6.268;2022-09-30T02:37:43;10.40;;;5.85;;
59659;SDS011;45534;52.690;6.268;2022-09-30T02:40:24;9.05;;;6.53;;
59659;SDS011;45534;52.690;6.268;2022-09-30T02:42:50;10.20;;;7.33;;
59659;SDS011;45534;52.690;6.268;2022-09-30T02:45:19;11.95;;;7.53;;
59659;SDS011;45534;52.690;6.268;2022-09-30T02:55:41;14.15;;;7.90;;
59659;SDS011;45534;52.690;6.268;2022-09-30T02:58:20;7.47;;;6.13;;
59659;SDS011;45534;52.690;6.268;2022-09-30T03:00:50;9.90;;;6.07;;
59659;SDS011;45534;52.690;6.268;2022-09-30T03:03:20;9.20;;;6.03;;
59659;SDS011;45534;52.690;6.268;2022-09-30T03:05:51;10.02;;;6.50;;
59659;SDS011;45534;52.690;6.268;2022-09-30T03:08:17;10.73;;;7.10;;
59659;SDS011;45534;52.690;6.268;2022-09-30T03:10:43;11.07;;;7.78;;
59659;SDS011;45534;52.690;6.268;2022-09-30T03:18:39;7.35;;;6.53;;
59659;SDS011;45534;52.690;6.268;2022-09-30T03:21:42;8.50;;;5.65;;
59659;SDS011;45534;52.690;6.268;2022-09-30T03:34:57;9.15;;;6.28;;
59659;SDS011;45534;52.690;6.268;2022-09-30T03:43:10;8.63;;;5.20;;
59659;SDS011;45534;52.690;6.268;2022-09-30T03:45:55;10.68;;;5.60;;
59659;SDS011;45534;52.690;6.268;2022-09-30T03:48:29;10.43;;;7.93;;
59659;SDS011;45534;52.690;6.268;2022-09-30T03:50:57;7.50;;;5.50;;
59659;SDS011;45534;52.690;6.268;2022-09-30T03:53:24;6.78;;;5.15;;
59659;SDS011;45534;52.690;6.268;2022-09-30T03:55:52;5.97;;;4.90;;
59659;SDS011;45534;52.690;6.268;2022-09-30T03:58:19;7.57;;;5.60;;
59659;SDS011;45534;52.690;6.268;2022-09-30T04:00:49;9.75;;;6.80;;
59659;SDS011;45534;52.690;6.268;2022-09-30T04:03:17;8.63;;;6.18;;
59659;SDS011;45534;52.690;6.268;2022-09-30T04:05:44;7.07;;;5.15;;
59659;SDS011;45534;52.690;6.268;2022-09-30T04:08:10;7.93;;;5.63;;
59659;SDS011;45534;52.690;6.268;2022-09-30T04:10:38;8.40;;;5.72;;
59659;SDS011;45534;52.690;6.268;2022-09-30T04:13:05;8.05;;;6.00;;
59659;SDS011;45534;52.690;6.268;2022-09-30T04:15:32;5.88;;;4.53;;
59659;SDS011;45534;52.690;6.268;2022-09-30T04:17:59;8.73;;;5.72;;
59659;SDS011;45534;52.690;6.268;2022-09-30T04:20:25;8.75;;;6.50;;
59659;SDS011;45534;52.690;6.268;2022-09-30T04:22:50;9.80;;;6.40;;
59659;SDS011;45534;52.690;6.268;2022-09-30T04:25:16;7.00;;;6.05;;
59659;SDS011;45534;52.690;6.268;2022-09-30T04:27:42;7.97;;;5.57;;
59659;SDS011;45534;52.690;6.268;2022-09-30T04:30:07;13.70;;;7.53;;
59659;SDS011;45534;52.690;6.268;2022-09-30T04:32:33;6.72;;;4.50;;
59659;SDS011;45534;52.690;6.268;2022-09-30T04:34:59;6.07;;;4.45;;
59659;SDS011;45534;52.690;6.268;2022-09-30T04:37:25;7.55;;;5.93;;
59659;SDS011;45534;52.690;6.268;2022-09-30T04:39:50;8.88;;;5.38;;
59659;SDS011;45534;52.690;6.268;2022-09-30T04:42:16;7.28;;;5.60;;
59659;SDS011;45534;52.690;6.268;2022-09-30T04:44:42;8.50;;;6.85;;
59659;SDS011;45534;52.690;6.268;2022-09-30T04:47:08;8.95;;;6.07;;
59659;SDS011;45534;52.690;6.268;2022-09-30T04:49:34;9.50;;;6.80;;
59659;SDS011;45534;52.690;6.268;2022-09-30T04:51:59;7.50;;;5.28;;
59659;SDS011;45534;52.690;6.268;2022-09-30T04:54:25;15.02;;;6.35;;
59659;SDS011;45534;52.690;6.268;2022-09-30T04:56:51;19.40;;;6.82;;
59659;SDS011;45534;52.690;6.268;2022-09-30T04:59:17;8.82;;;5.97;;
59659;SDS011;45534;52.690;6.268;2022-09-30T05:01:42;9.18;;;5.97;;
59659;SDS011;45534;52.690;6.268;2022-09-30T05:04:09;8.80;;;5.40;;
59659;SDS011;45534;52.690;6.268;2022-09-30T05:06:36;7.50;;;6.07;;
59659;SDS011;45534;52.690;6.268;2022-09-30T05:09:05;7.80;;;6.25;;
59659;SDS011;45534;52.690;6.268;2022-09-30T05:11:30;10.02;;;6.10;;
59659;SDS011;45534;52.690;6.268;2022-09-30T05:13:56;7.50;;;5.30;;
59659;SDS011;45534;52.690;6.268;2022-09-30T05:16:22;8.07;;;4.72;;
59659;SDS011;45534;52.690;6.268;2022-09-30T05:18:48;7.50;;;4.75;;
59659;SDS011;45534;52.690;6.268;2022-09-30T05:21:15;10.95;;;6.63;;
59659;SDS011;45534;52.690;6.268;2022-09-30T05:23:42;7.35;;;5.25;;
59659;SDS011;45534;52.690;6.268;2022-09-30T05:26:08;6.65;;;5.35;;
59659;SDS011;45534;52.690;6.268;2022-09-30T05:28:34;10.05;;;6.25;;
59659;SDS011;45534;52.690;6.268;2022-09-30T05:31:03;10.55;;;6.20;;
59659;SDS011;45534;52.690;6.268;2022-09-30T05:33:30;8.52;;;6.43;;
59659;SDS011;45534;52.690;6.268;2022-09-30T05:36:04;6.22;;;4.70;;
59659;SDS011;45534;52.690;6.268;2022-09-30T05:38:31;7.38;;;5.93;;
59659;SDS011;45534;52.690;6.268;2022-09-30T05:40:57;7.40;;;5.63;;
59659;SDS011;45534;52.690;6.268;2022-09-30T05:43:23;7.50;;;4.90;;
59659;SDS011;45534;52.690;6.268;2022-09-30T05:45:55;6.32;;;5.13;;
59659;SDS011;45534;52.690;6.268;2022-09-30T05:48:22;5.75;;;4.45;;
59659;SDS011;45534;52.690;6.268;2022-09-30T05:50:53;8.73;;;4.82;;
59659;SDS011;45534;52.690;6.268;2022-09-30T05:53:20;8.75;;;5.22;;
59659;SDS011;45534;52.690;6.268;2022-09-30T05:55:46;8.65;;;4.93;;
59659;SDS011;45534;52.690;6.268;2022-09-30T05:58:15;6.32;;;4.75;;
59659;SDS011;45534;52.690;6.268;2022-09-30T06:00:46;7.43;;;5.53;;
59659;SDS011;45534;52.690;6.268;2022-09-30T06:03:12;8.90;;;6.90;;
59659;SDS011;45534;52.690;6.268;2022-09-30T06:05:39;6.47;;;4.97;;
59659;SDS011;45534;52.690;6.268;2022-09-30T06:08:04;6.93;;;4.85;;
59659;SDS011;45534;52.690;6.268;2022-09-30T06:10:33;8.50;;;6.03;;
59659;SDS011;45534;52.690;6.268;2022-09-30T06:13:01;6.88;;;5.75;;
59659;SDS011;45534;52.690;6.268;2022-09-30T06:15:28;5.60;;;4.40;;
59659;SDS011;45534;52.690;6.268;2022-09-30T06:17:54;7.63;;;6.25;;
59659;SDS011;45534;52.690;6.268;2022-09-30T06:20:20;8.35;;;5.15;;
59659;SDS011;45534;52.690;6.268;2022-09-30T06:22:46;17.45;;;5.90;;
59659;SDS011;45534;52.690;6.268;2022-09-30T06:25:12;8.05;;;4.32;;
59659;SDS011;45534;52.690;6.268;2022-09-30T06:27:38;6.25;;;4.90;;
59659;SDS011;45534;52.690;6.268;2022-09-30T06:30:08;7.25;;;5.40;;
59659;SDS011;45534;52.690;6.268;2022-09-30T06:32:34;7.00;;;4.82;;
59659;SDS011;45534;52.690;6.268;2022-09-30T06:34:59;8.40;;;5.43;;
59659;SDS011;45534;52.690;6.268;2022-09-30T06:37:27;11.13;;;5.85;;
59659;SDS011;45534;52.690;6.268;2022-09-30T06:39:53;6.50;;;5.25;;
59659;SDS011;45534;52.690;6.268;2022-09-30T06:42:18;7.93;;;4.88;;
59659;SDS011;45534;52.690;6.268;2022-09-30T06:44:47;6.50;;;5.05;;
59659;SDS011;45534;52.690;6.268;2022-09-30T06:47:12;6.20;;;5.25;;
59659;SDS011;45534;52.690;6.268;2022-09-30T06:49:38;7.93;;;5.25;;
59659;SDS011;45534;52.690;6.268;2022-09-30T06:52:07;8.40;;;4.70;;
59659;SDS011;45534;52.690;6.268;2022-09-30T06:54:33;9.07;;;5.30;;
59659;SDS011;45534;52.690;6.268;2022-09-30T06:56:59;6.95;;;4.88;;
59659;SDS011;45534;52.690;6.268;2022-09-30T06:59:26;6.35;;;4.80;;
59659;SDS011;45534;52.690;6.268;2022-09-30T07:01:51;8.45;;;5.43;;
59659;SDS011;45534;52.690;6.268;2022-09-30T07:04:17;9.25;;;5.35;;
59659;SDS011;45534;52.690;6.268;2022-09-30T07:06:43;15.77;;;6.82;;
59659;SDS011;45534;52.690;6.268;2022-09-30T07:09:09;9.88;;;5.38;;
59659;SDS011;45534;52.690;6.268;2022-09-30T07:11:36;7.22;;;4.57;;
59659;SDS011;45534;52.690;6.268;2022-09-30T07:14:03;11.90;;;5.32;;
59659;SDS011;45534;52.690;6.268;2022-09-30T07:16:30;9.98;;;6.32;;
59659;SDS011;45534;52.690;6.268;2022-09-30T07:18:56;7.40;;;5.70;;
59659;SDS011;45534;52.690;6.268;2022-09-30T07:21:25;9.35;;;6.03;;
59659;SDS011;45534;52.690;6.268;2022-09-30T07:23:51;8.13;;;4.70;;
59659;SDS011;45534;52.690;6.268;2022-09-30T07:26:20;6.43;;;5.68;;
59659;SDS011;45534;52.690;6.268;2022-09-30T07:28:48;9.38;;;5.43;;
59659;SDS011;45534;52.690;6.268;2022-09-30T07:31:16;5.82;;;4.75;;
59659;SDS011;45534;52.690;6.268;2022-09-30T07:33:45;5.88;;;4.20;;
59659;SDS011;45534;52.690;6.268;2022-09-30T07:36:12;7.45;;;4.88;;
59659;SDS011;45534;52.690;6.268;2022-09-30T07:38:43;4.40;;;3.80;;
59659;SDS011;45534;52.690;6.268;2022-09-30T07:41:17;9.00;;;6.05;;
59659;SDS011;45534;52.690;6.268;2022-09-30T07:43:46;6.93;;;5.35;;
59659;SDS011;45534;52.690;6.268;2022-09-30T07:46:13;6.90;;;3.85;;
59659;SDS011;45534;52.690;6.268;2022-09-30T07:48:42;7.35;;;5.45;;
59659;SDS011;45534;52.690;6.268;2022-09-30T07:51:10;5.32;;;4.53;;
59659;SDS011;45534;52.690;6.268;2022-09-30T07:53:47;7.63;;;5.82;;
59659;SDS011;45534;52.690;6.268;2022-09-30T07:56:15;12.75;;;5.47;;
59659;SDS011;45534;52.690;6.268;2022-09-30T07:58:41;6.47;;;4.25;;
59659;SDS011;45534;52.690;6.268;2022-09-30T08:01:07;9.95;;;4.95;;
59659;SDS011;45534;52.690;6.268;2022-09-30T08:03:35;8.40;;;6.50;;
59659;SDS011;45534;52.690;6.268;2022-09-30T08:06:13;8.02;;;6.30;;
59659;SDS011;45534;52.690;6.268;2022-09-30T08:08:41;12.57;;;9.93;;
59659;SDS011;45534;52.690;6.268;2022-09-30T08:11:09;12.48;;;7.05;;
59659;SDS011;45534;52.690;6.268;2022-09-30T08:13:35;9.82;;;7.18;;
59659;SDS011;45534;52.690;6.268;2022-09-30T08:16:02;8.63;;;5.75;;
59659;SDS011;45534;52.690;6.268;2022-09-30T08:18:28;13.77;;;6.82;;
59659;SDS011;45534;52.690;6.268;2022-09-30T08:20:53;10.25;;;7.68;;
59659;SDS011;45534;52.690;6.268;2022-09-30T08:23:19;8.95;;;6.85;;
59659;SDS011;45534;52.690;6.268;2022-09-30T08:25:45;7.97;;;5.47;;
59659;SDS011;45534;52.690;6.268;2022-09-30T08:28:11;7.25;;;6.00;;
59659;SDS011;45534;52.690;6.268;2022-09-30T08:30:38;8.95;;;6.20;;
59659;SDS011;45534;52.690;6.268;2022-09-30T08:33:04;6.95;;;5.15;;
59659;SDS011;45534;52.690;6.268;2022-09-30T08:35:30;7.70;;;6.10;;
59659;SDS011;45534;52.690;6.268;2022-09-30T08:37:56;10.15;;;5.57;;
59659;SDS011;45534;52.690;6.268;2022-09-30T08:40:29;8.07;;;6.20;;
59659;SDS011;45534;52.690;6.268;2022-09-30T08:45:35;7.85;;;5.82;;
59659;SDS011;45534;52.690;6.268;2022-09-30T08:53:24;8.95;;;5.40;;
59659;SDS011;45534;52.690;6.268;2022-09-30T08:55:54;8.90;;;6.78;;
59659;SDS011;45534;52.690;6.268;2022-09-30T09:03:38;8.10;;;6.15;;
59659;SDS011;45534;52.690;6.268;2022-09-30T09:06:11;13.40;;;8.70;;
59659;SDS011;45534;52.690;6.268;2022-09-30T09:20:54;12.35;;;7.93;;
59659;SDS011;45534;52.690;6.268;2022-09-30T09:23:22;7.22;;;5.63;;
59659;SDS011;45534;52.690;6.268;2022-09-30T09:25:48;13.23;;;7.07;;
59659;SDS011;45534;52.690;6.268;2022-09-30T09:28:22;7.28;;;5.30;;
59659;SDS011;45534;52.690;6.268;2022-09-30T09:30:56;11.80;;;7.15;;
59659;SDS011;45534;52.690;6.268;2022-09-30T09:33:25;13.15;;;7.78;;
59659;SDS011;45534;52.690;6.268;2022-09-30T09:39:14;9.75;;;6.70;;
59659;SDS011;45534;52.690;6.268;2022-09-30T09:47:02;7.93;;;5.72;;
59659;SDS011;45534;52.690;6.268;2022-09-30T09:49:38;8.55;;;6.40;;
59659;SDS011;45534;52.690;6.268;2022-09-30T09:54:45;7.68;;;5.70;;
59659;SDS011;45534;52.690;6.268;2022-09-30T09:57:23;8.27;;;6.75;;
59659;SDS011;45534;52.690;6.268;2022-09-30T10:02:44;4.82;;;3.40;;
59659;SDS011;45534;52.690;6.268;2022-09-30T10:05:29;12.25;;;6.53;;
59659;SDS011;45534;52.690;6.268;2022-09-30T10:16:02;5.53;;;4.18;;
59659;SDS011;45534;52.690;6.268;2022-09-30T10:18:30;7.68;;;5.22;;
59659;SDS011;45534;52.690;6.268;2022-09-30T10:23:43;7.88;;;4.88;;
59659;SDS011;45534;52.690;6.268;2022-09-30T10:26:19;4.88;;;4.05;;
59659;SDS011;45534;52.690;6.268;2022-09-30T10:28:52;7.07;;;5.03;;
59659;SDS011;45534;52.690;6.268;2022-09-30T10:31:23;6.72;;;4.93;;
59659;SDS011;45534;52.690;6.268;2022-09-30T10:36:28;7.13;;;4.35;;
59659;SDS011;45534;52.690;6.268;2022-09-30T10:38:58;7.75;;;5.82;;
59659;SDS011;45534;52.690;6.268;2022-09-30T10:41:27;11.63;;;5.97;;
59659;SDS011;45534;52.690;6.268;2022-09-30T10:44:00;13.20;;;9.43;;
59659;SDS011;45534;52.690;6.268;2022-09-30T10:46:39;4.00;;;3.60;;
59659;SDS011;45534;52.690;6.268;2022-09-30T10:49:27;11.13;;;9.30;;
59659;SDS011;45534;52.690;6.268;2022-09-30T10:52:03;5.13;;;4.22;;
59659;SDS011;45534;52.690;6.268;2022-09-30T10:57:05;12.95;;;8.93;;
59659;SDS011;45534;52.690;6.268;2022-09-30T10:59:38;12.23;;;10.05;;
59659;SDS011;45534;52.690;6.268;2022-09-30T11:02:21;16.13;;;11.13;;
59659;SDS011;45534;52.690;6.268;2022-09-30T11:18:53;13.75;;;12.30;;
59659;SDS011;45534;52.690;6.268;2022-09-30T11:21:28;18.02;;;12.52;;
59659;SDS011;45534;52.690;6.268;2022-09-30T11:26:43;14.88;;;12.63;;
59659;SDS011;45534;52.690;6.268;2022-09-30T11:32:22;15.82;;;13.27;;
59659;SDS011;45534;52.690;6.268;2022-09-30T11:40:46;17.30;;;15.43;;
59659;SDS011;45534;52.690;6.268;2022-09-30T11:51:53;14.35;;;12.85;;
59659;SDS011;45534;52.690;6.268;2022-09-30T11:57:03;12.20;;;9.45;;
59659;SDS011;45534;52.690;6.268;2022-09-30T11:59:43;8.77;;;7.20;;
59659;SDS011;45534;52.690;6.268;2022-09-30T12:02:24;7.50;;;6.45;;
59659;SDS011;45534;52.690;6.268;2022-09-30T12:04:57;8.45;;;7.35;;
59659;SDS011;45534;52.690;6.268;2022-09-30T12:07:50;7.97;;;6.60;;
59659;SDS011;45534;52.690;6.268;2022-09-30T12:10:24;8.23;;;6.30;;
59659;SDS011;45534;52.690;6.268;2022-09-30T12:13:16;6.13;;;5.50;;
59659;SDS011;45534;52.690;6.268;2022-09-30T12:15:55;9.98;;;7.00;;
59659;SDS011;45534;52.690;6.268;2022-09-30T12:18:26;7.20;;;6.00;;
59659;SDS011;45534;52.690;6.268;2022-09-30T12:21:21;6.03;;;5.15;;
59659;SDS011;45534;52.690;6.268;2022-09-30T12:24:03;12.15;;;7.28;;
59659;SDS011;45534;52.690;6.268;2022-09-30T12:26:44;9.43;;;8.43;;
59659;SDS011;45534;52.690;6.268;2022-09-30T12:29:15;9.38;;;7.88;;
59659;SDS011;45534;52.690;6.268;2022-09-30T12:38:18;9.35;;;8.35;;
59659;SDS011;45534;52.690;6.268;2022-09-30T12:41:10;10.65;;;9.65;;
59659;SDS011;45534;52.690;6.268;2022-09-30T12:44:00;10.02;;;8.77;;
59659;SDS011;45534;52.690;6.268;2022-09-30T12:46:51;10.60;;;9.55;;
59659;SDS011;45534;52.690;6.268;2022-09-30T12:49:19;11.60;;;10.17;;
59659;SDS011;45534;52.690;6.268;2022-09-30T12:51:50;12.35;;;10.38;;
59659;SDS011;45534;52.690;6.268;2022-09-30T12:54:21;9.52;;;8.43;;
59659;SDS011;45534;52.690;6.268;2022-09-30T12:56:56;11.38;;;9.38;;
59659;SDS011;45534;52.690;6.268;2022-09-30T12:59:30;11.55;;;10.00;;
59659;SDS011;45534;52.690;6.268;2022-09-30T13:09:36;9.10;;;8.18;;
59659;SDS011;45534;52.690;6.268;2022-09-30T13:12:23;10.70;;;9.40;;
59659;SDS011;45534;52.690;6.268;2022-09-30T13:17:48;9.85;;;7.38;;
59659;SDS011;45534;52.690;6.268;2022-09-30T13:31:25;8.93;;;7.13;;
59659;SDS011;45534;52.690;6.268;2022-09-30T13:34:07;7.55;;;6.78;;
59659;SDS011;45534;52.690;6.268;2022-09-30T13:42:09;8.88;;;7.20;;
59659;SDS011;45534;52.690;6.268;2022-09-30T13:53:12;7.07;;;5.65;;
59659;SDS011;45534;52.690;6.268;2022-09-30T13:55:58;10.10;;;5.60;;
59659;SDS011;45534;52.690;6.268;2022-09-30T14:13:09;7.82;;;5.75;;
59659;SDS011;45534;52.690;6.268;2022-09-30T14:21:43;3.97;;;3.58;;
59659;SDS011;45534;52.690;6.268;2022-09-30T14:24:15;5.70;;;4.37;;
59659;SDS011;45534;52.690;6.268;2022-09-30T14:27:01;6.82;;;3.92;;
59659;SDS011;45534;52.690;6.268;2022-09-30T14:29:38;6.90;;;4.78;;
59659;SDS011;45534;52.690;6.268;2022-09-30T14:32:26;4.28;;;3.88;;
59659;SDS011;45534;52.690;6.268;2022-09-30T14:34:54;4.07;;;3.75;;
59659;SDS011;45534;52.690;6.268;2022-09-30T14:37:26;14.23;;;4.70;;
59659;SDS011;45534;52.690;6.268;2022-09-30T14:39:54;4.97;;;4.35;;
59659;SDS011;45534;52.690;6.268;2022-09-30T14:42:30;3.58;;;3.28;;
59659;SDS011;45534;52.690;6.268;2022-09-30T14:45:00;6.18;;;4.57;;
59659;SDS011;45534;52.690;6.268;2022-09-30T14:47:39;4.90;;;4.47;;
59659;SDS011;45534;52.690;6.268;2022-09-30T14:50:10;7.05;;;4.18;;
59659;SDS011;45534;52.690;6.268;2022-09-30T14:57:46;7.22;;;5.25;;
59659;SDS011;45534;52.690;6.268;2022-09-30T15:00:28;6.03;;;4.80;;
59659;SDS011;45534;52.690;6.268;2022-09-30T15:02:55;5.88;;;4.63;;
59659;SDS011;45534;52.690;6.268;2022-09-30T15:05:29;5.07;;;4.57;;
59659;SDS011;45534;52.690;6.268;2022-09-30T15:07:54;10.52;;;4.68;;
59659;SDS011;45534;52.690;6.268;2022-09-30T15:10:22;5.40;;;4.47;;
59659;SDS011;45534;52.690;6.268;2022-09-30T15:12:49;5.93;;;4.38;;
59659;SDS011;45534;52.690;6.268;2022-09-30T15:15:23;6.68;;;5.00;;
59659;SDS011;45534;52.690;6.268;2022-09-30T15:18:00;5.30;;;4.35;;
59659;SDS011;45534;52.690;6.268;2022-09-30T15:20:45;4.68;;;2.63;;
59659;SDS011;45534;52.690;6.268;2022-09-30T15:23:16;5.80;;;3.78;;
59659;SDS011;45534;52.690;6.268;2022-09-30T15:25:45;3.60;;;3.30;;
59659;SDS011;45534;52.690;6.268;2022-09-30T15:28:11;7.40;;;5.63;;
59659;SDS011;45534;52.690;6.268;2022-09-30T15:30:37;8.02;;;5.50;;
59659;SDS011;45534;52.690;6.268;2022-09-30T15:33:04;6.10;;;4.68;;
59659;SDS011;45534;52.690;6.268;2022-09-30T15:35:30;2.95;;;2.55;;
59659;SDS011;45534;52.690;6.268;2022-09-30T15:38:17;6.78;;;3.72;;
59659;SDS011;45534;52.690;6.268;2022-09-30T15:40:47;12.50;;;4.35;;
59659;SDS011;45534;52.690;6.268;2022-09-30T15:43:36;6.63;;;3.75;;
59659;SDS011;45534;52.690;6.268;2022-09-30T15:48:41;2.70;;;2.50;;
59659;SDS011;45534;52.690;6.268;2022-09-30T15:53:59;2.85;;;2.55;;
59659;SDS011;45534;52.690;6.268;2022-09-30T15:56:46;4.30;;;2.53;;
59659;SDS011;45534;52.690;6.268;2022-09-30T15:59:12;7.18;;;4.07;;
59659;SDS011;45534;52.690;6.268;2022-09-30T16:01:40;2.60;;;2.40;;
59659;SDS011;45534;52.690;6.268;2022-09-30T16:04:11;3.17;;;2.88;;
59659;SDS011;45534;52.690;6.268;2022-09-30T16:06:49;2.30;;;1.95;;
59659;SDS011;45534;52.690;6.268;2022-09-30T16:09:24;10.10;;;3.75;;
59659;SDS011;45534;52.690;6.268;2022-09-30T16:14:33;10.23;;;3.63;;
59659;SDS011;45534;52.690;6.268;2022-09-30T16:17:04;6.78;;;3.70;;
59659;SDS011;45534;52.690;6.268;2022-09-30T16:19:31;2.13;;;2.03;;
59659;SDS011;45534;52.690;6.268;2022-09-30T16:21:58;3.35;;;3.05;;
59659;SDS011;45534;52.690;6.268;2022-09-30T16:29:45;3.17;;;2.88;;
59659;SDS011;45534;52.690;6.268;2022-09-30T16:32:10;3.13;;;2.85;;
59659;SDS011;45534;52.690;6.268;2022-09-30T16:34:38;5.30;;;3.60;;
59659;SDS011;45534;52.690;6.268;2022-09-30T16:37:14;5.25;;;3.88;;
59659;SDS011;45534;52.690;6.268;2022-09-30T16:39:43;2.80;;;2.60;;
59659;SDS011;45534;52.690;6.268;2022-09-30T16:42:11;3.88;;;3.58;;
59659;SDS011;45534;52.690;6.268;2022-09-30T16:44:38;5.20;;;3.78;;
59659;SDS011;45534;52.690;6.268;2022-09-30T16:47:03;5.22;;;4.72;;
59659;SDS011;45534;52.690;6.268;2022-09-30T16:49:29;6.40;;;2.83;;
59659;SDS011;45534;52.690;6.268;2022-09-30T16:51:55;3.30;;;2.63;;
59659;SDS011;45534;52.690;6.268;2022-09-30T16:54:21;9.43;;;3.72;;
59659;SDS011;45534;52.690;6.268;2022-09-30T16:56:46;5.93;;;4.85;;
59659;SDS011;45534;52.690;6.268;2022-09-30T16:59:14;5.93;;;4.18;;
59659;SDS011;45534;52.690;6.268;2022-09-30T17:01:41;6.40;;;4.22;;
59659;SDS011;45534;52.690;6.268;2022-09-30T17:04:07;5.25;;;4.18;;
59659;SDS011;45534;52.690;6.268;2022-09-30T17:06:34;5.07;;;3.97;;
59659;SDS011;45534;52.690;6.268;2022-09-30T17:09:01;8.00;;;5.55;;
59659;SDS011;45534;52.690;6.268;2022-09-30T17:11:31;4.72;;;4.10;;
59659;SDS011;45534;52.690;6.268;2022-09-30T17:13:58;4.00;;;3.58;;
59659;SDS011;45534;52.690;6.268;2022-09-30T17:16:25;6.03;;;4.70;;
59659;SDS011;45534;52.690;6.268;2022-09-30T17:18:51;5.07;;;4.57;;
59659;SDS011;45534;52.690;6.268;2022-09-30T17:21:21;6.75;;;4.10;;
59659;SDS011;45534;52.690;6.268;2022-09-30T17:23:49;13.82;;;4.47;;
59659;SDS011;45534;52.690;6.268;2022-09-30T17:26:15;9.60;;;5.32;;
59659;SDS011;45534;52.690;6.268;2022-09-30T17:28:41;7.60;;;5.25;;
59659;SDS011;45534;52.690;6.268;2022-09-30T17:31:07;4.55;;;4.15;;
59659;SDS011;45534;52.690;6.268;2022-09-30T17:33:34;8.15;;;5.65;;
59659;SDS011;45534;52.690;6.268;2022-09-30T17:36:04;4.55;;;3.95;;
59659;SDS011;45534;52.690;6.268;2022-09-30T17:38:34;6.78;;;4.40;;
59659;SDS011;45534;52.690;6.268;2022-09-30T17:41:01;4.15;;;3.60;;
59659;SDS011;45534;52.690;6.268;2022-09-30T17:43:45;4.65;;;4.10;;
59659;SDS011;45534;52.690;6.268;2022-09-30T17:46:12;5.07;;;4.60;;
59659;SDS011;45534;52.690;6.268;2022-09-30T17:48:42;6.45;;;4.05;;
59659;SDS011;45534;52.690;6.268;2022-09-30T17:51:09;3.95;;;3.65;;
59659;SDS011;45534;52.690;6.268;2022-09-30T17:53:35;4.32;;;3.88;;
59659;SDS011;45534;52.690;6.268;2022-09-30T17:56:05;6.45;;;4.22;;
59659;SDS011;45534;52.690;6.268;2022-09-30T17:58:38;4.80;;;3.90;;
59659;SDS011;45534;52.690;6.268;2022-09-30T18:01:07;4.43;;;3.33;;
59659;SDS011;45534;52.690;6.268;2022-09-30T18:03:34;7.45;;;3.92;;
59659;SDS011;45534;52.690;6.268;2022-09-30T18:06:01;4.75;;;4.35;;
59659;SDS011;45534;52.690;6.268;2022-09-30T18:08:27;4.97;;;3.88;;
59659;SDS011;45534;52.690;6.268;2022-09-30T18:10:54;5.78;;;4.35;;
59659;SDS011;45534;52.690;6.268;2022-09-30T18:13:21;3.75;;;3.38;;
59659;SDS011;45534;52.690;6.268;2022-09-30T18:15:48;5.15;;;4.18;;
59659;SDS011;45534;52.690;6.268;2022-09-30T18:18:13;8.63;;;3.63;;
59659;SDS011;45534;52.690;6.268;2022-09-30T18:20:44;3.83;;;3.13;;
59659;SDS011;45534;52.690;6.268;2022-09-30T18:23:11;5.05;;;4.05;;
59659;SDS011;45534;52.690;6.268;2022-09-30T18:25:38;6.28;;;3.13;;
59659;SDS011;45534;52.690;6.268;2022-09-30T18:28:07;4.43;;;3.45;;
59659;SDS011;45534;52.690;6.268;2022-09-30T18:30:36;6.20;;;3.55;;
59659;SDS011;45534;52.690;6.268;2022-09-30T18:33:03;4.57;;;3.38;;
59659;SDS011;45534;52.690;6.268;2022-09-30T18:35:31;6.07;;;4.32;;
59659;SDS011;45534;52.690;6.268;2022-09-30T18:38:02;7.32;;;4.80;;
59659;SDS011;45534;52.690;6.268;2022-09-30T18:40:28;4.20;;;3.42;;
59659;SDS011;45534;52.690;6.268;2022-09-30T18:42:55;4.00;;;3.20;;
59659;SDS011;45534;52.690;6.268;2022-09-30T18:45:30;4.38;;;3.22;;
59659;SDS011;45534;52.690;6.268;2022-09-30T18:47:58;3.88;;;3.53;;
59659;SDS011;45534;52.690;6.268;2022-09-30T18:50:25;5.63;;;4.05;;
59659;SDS011;45534;52.690;6.268;2022-09-30T18:52:52;8.60;;;3.80;;
59659;SDS011;45534;52.690;6.268;2022-09-30T18:55:19;4.65;;;3.13;;